Time;durP1;ratioP1;P1;durP2;ratioP2;P2;SDS_P1;SDS_P2;PMS_P1;PMS_P2;Temp;Humidity;BMP_temperature;BMP_pressure;BME280_temperature;BME280_humidity;BME280_pressure;Samples;Min_cycle;Max_cycle;Signal;HPM_P1;HPM_P2
2022/01/02 00:00:01;;;;;;;5.03;4.07;;;;;;;;;;5112770;28;20033;-74
2022/01/02 00:02:29;;;;;;;5.75;4.93;;;;;;;;;;5113055;28;20081;-74
2022/01/02 00:04:59;;;;;;;6.55;4.50;;;;;;;;;;5094553;28;20449;-74
2022/01/02 00:07:27;;;;;;;4.72;4.07;;;;;;;;;;5112964;28;20085;-74
2022/01/02 00:09:53;;;;;;;4.93;4.18;;;;;;;;;;5112545;28;20172;-74
2022/01/02 00:12:25;;;;;;;5.03;4.40;;;;;;;;;;5112674;28;20080;-74
2022/01/02 00:14:54;;;;;;;5.35;4.43;;;;;;;;;;5094271;28;20028;-74
2022/01/02 00:17:23;;;;;;;5.20;4.38;;;;;;;;;;5112766;28;20016;-74
2022/01/02 00:19:54;;;;;;;5.88;4.45;;;;;;;;;;5112525;28;20030;-74
2022/01/02 00:22:26;;;;;;;6.55;4.72;;;;;;;;;;5094560;28;20485;-73
2022/01/02 00:24:53;;;;;;;5.00;4.45;;;;;;;;;;5112506;28;20115;-74
2022/01/02 00:27:19;;;;;;;5.13;4.32;;;;;;;;;;5113024;28;20024;-74
2022/01/02 00:29:45;;;;;;;5.88;4.78;;;;;;;;;;5112238;28;20101;-74
2022/01/02 00:32:14;;;;;;;6.05;4.70;;;;;;;;;;5094846;28;20020;-74
2022/01/02 00:34:41;;;;;;;4.88;4.38;;;;;;;;;;5112412;28;20031;-74
2022/01/02 00:37:07;;;;;;;5.22;4.40;;;;;;;;;;5112922;28;20033;-74
2022/01/02 00:39:34;;;;;;;5.32;4.22;;;;;;;;;;5112744;28;20023;-74
2022/01/02 00:42:07;;;;;;;5.57;4.15;;;;;;;;;;5112598;28;20024;-72
2022/01/02 00:44:53;;;;;;;4.65;3.97;;;;;;;;;;5115811;28;20031;-72
2022/01/02 00:47:24;;;;;;;6.18;5.07;;;;;;;;;;5116500;28;20029;-74
2022/01/02 00:50:13;;;;;;;4.90;4.40;;;;;;;;;;5116118;28;20074;-74
2022/01/02 00:52:43;;;;;;;4.68;3.92;;;;;;;;;;5102919;28;20036;-74
2022/01/02 00:55:22;;;;;;;5.03;4.20;;;;;;;;;;5116334;28;20064;-74
2022/01/02 00:57:55;;;;;;;4.85;3.92;;;;;;;;;;5116438;28;20030;-74
2022/01/02 01:00:25;;;;;;;5.22;4.63;;;;;;;;;;5116187;28;20406;-74
2022/01/02 01:02:53;;;;;;;4.78;4.20;;;;;;;;;;5116216;28;20019;-74
2022/01/02 01:05:31;;;;;;;5.40;4.55;;;;;;;;;;5115941;28;20593;-74
2022/01/02 01:07:59;;;;;;;6.30;4.50;;;;;;;;;;5116372;28;20077;-73
2022/01/02 01:10:28;;;;;;;4.90;4.40;;;;;;;;;;5115616;28;20509;-74
2022/01/02 01:12:55;;;;;;;4.93;4.38;;;;;;;;;;5116161;28;20016;-74
2022/01/02 01:15:23;;;;;;;5.55;4.32;;;;;;;;;;5115754;28;20031;-73
2022/01/02 01:17:51;;;;;;;6.25;5.20;;;;;;;;;;5097500;28;20186;-74
2022/01/02 01:20:18;;;;;;;5.88;4.53;;;;;;;;;;5097617;28;20027;-74
2022/01/02 01:22:49;;;;;;;5.38;4.55;;;;;;;;;;5097499;28;20565;-74
2022/01/02 01:25:17;;;;;;;6.18;4.70;;;;;;;;;;5097092;28;20028;-73
2022/01/02 01:27:47;;;;;;;4.88;4.22;;;;;;;;;;5114996;27;20031;-74
2022/01/02 01:30:14;;;;;;;5.10;4.60;;;;;;;;;;5115172;28;20459;-73
2022/01/02 01:32:40;;;;;;;5.20;4.70;;;;;;;;;;5115248;28;20402;-73
2022/01/02 01:35:07;;;;;;;4.88;4.10;;;;;;;;;;5115860;28;20020;-74
2022/01/02 01:37:33;;;;;;;6.30;4.90;;;;;;;;;;5115274;28;20031;-73
2022/01/02 01:39:59;;;;;;;4.82;4.07;;;;;;;;;;5097195;28;20464;-74
2022/01/02 01:42:36;;;;;;;6.00;4.53;;;;;;;;;;5115294;28;20027;-73
2022/01/02 01:47:30;;;;;;;5.22;4.47;;;;;;;;;;5114903;28;20418;-74
2022/01/02 01:49:56;;;;;;;5.13;4.60;;;;;;;;;;5115183;28;20024;-74
2022/01/02 01:52:22;;;;;;;4.72;4.20;;;;;;;;;;5115082;28;20076;-74
2022/01/02 01:54:48;;;;;;;5.38;4.20;;;;;;;;;;5114575;28;20391;-74
2022/01/02 01:57:14;;;;;;;4.75;3.95;;;;;;;;;;5114792;28;20490;-74
2022/01/02 01:59:40;;;;;;;4.88;4.20;;;;;;;;;;5114955;28;20030;-74
2022/01/02 02:02:06;;;;;;;4.82;4.30;;;;;;;;;;5114859;28;20032;-73
2022/01/02 02:04:32;;;;;;;5.28;4.40;;;;;;;;;;5115479;28;20023;-73
2022/01/02 02:07:00;;;;;;;5.15;4.32;;;;;;;;;;5114582;28;20027;-74
2022/01/02 02:09:38;;;;;;;5.47;4.50;;;;;;;;;;5115008;28;20059;-74
2022/01/02 02:12:04;;;;;;;6.60;5.05;;;;;;;;;;5114313;28;20027;-74
2022/01/02 02:14:32;;;;;;;5.03;4.50;;;;;;;;;;5114937;28;20051;-74
2022/01/02 02:16:58;;;;;;;4.82;4.32;;;;;;;;;;5096264;28;20027;-74
2022/01/02 02:19:24;;;;;;;5.50;4.68;;;;;;;;;;5096529;28;20028;-74
2022/01/02 02:21:51;;;;;;;4.72;4.10;;;;;;;;;;5114432;28;20110;-74
2022/01/02 02:24:17;;;;;;;6.57;4.82;;;;;;;;;;5114407;28;20362;-74
2022/01/02 02:26:44;;;;;;;5.80;4.85;;;;;;;;;;5114547;28;20402;-74
2022/01/02 02:29:11;;;;;;;5.45;4.47;;;;;;;;;;5114091;27;20047;-74
2022/01/02 02:31:37;;;;;;;6.47;4.88;;;;;;;;;;5114122;28;20134;-74
2022/01/02 02:34:03;;;;;;;5.53;4.43;;;;;;;;;;5114795;28;20019;-74
2022/01/02 02:36:29;;;;;;;5.90;4.50;;;;;;;;;;5113861;28;20028;-74
2022/01/02 02:38:55;;;;;;;5.70;4.57;;;;;;;;;;5114579;28;20030;-74
2022/01/02 02:41:21;;;;;;;5.90;4.80;;;;;;;;;;5113816;28;20019;-74
2022/01/02 02:43:58;;;;;;;5.22;4.65;;;;;;;;;;5114004;28;20051;-74
2022/01/02 02:49:09;;;;;;;5.82;4.63;;;;;;;;;;5114121;28;20414;-73
2022/01/02 02:54:10;;;;;;;5.93;4.97;;;;;;;;;;5113727;28;20144;-74
2022/01/02 02:59:09;;;;;;;5.63;4.63;;;;;;;;;;5113627;28;20050;-74
2022/01/02 03:01:35;;;;;;;5.13;4.57;;;;;;;;;;5114019;28;20024;-73
2022/01/02 03:04:01;;;;;;;5.82;4.85;;;;;;;;;;5113709;28;20047;-73
2022/01/02 03:06:27;;;;;;;5.30;4.45;;;;;;;;;;5094592;28;20028;-73
2022/01/02 03:08:53;;;;;;;5.65;5.05;;;;;;;;;;5094961;28;20024;-73
2022/01/02 03:11:21;;;;;;;4.68;4.18;;;;;;;;;;5113590;28;20024;-74
2022/01/02 03:13:51;;;;;;;5.47;4.47;;;;;;;;;;5113307;28;20099;-73
2022/01/02 03:16:17;;;;;;;5.10;4.60;;;;;;;;;;5113737;28;20031;-73
2022/01/02 03:18:44;;;;;;;4.72;4.13;;;;;;;;;;5113557;28;20534;-73
2022/01/02 03:21:10;;;;;;;5.78;4.60;;;;;;;;;;5113554;28;20030;-73
2022/01/02 03:23:37;;;;;;;4.72;4.20;;;;;;;;;;5112978;28;20012;-74
2022/01/02 03:26:04;;;;;;;4.95;4.28;;;;;;;;;;5113531;28;20031;-73
2022/01/02 03:28:30;;;;;;;5.72;4.65;;;;;;;;;;5094681;28;20514;-73
2022/01/02 03:30:56;;;;;;;5.18;4.38;;;;;;;;;;5113032;28;20031;-73
2022/01/02 03:33:23;;;;;;;5.13;4.35;;;;;;;;;;5113253;28;20103;-73
2022/01/02 03:35:49;;;;;;;4.82;4.00;;;;;;;;;;5113472;28;20061;-73
2022/01/02 03:38:15;;;;;;;4.95;4.03;;;;;;;;;;5113043;28;20042;-73
2022/01/02 03:40:41;;;;;;;6.07;4.18;;;;;;;;;;5113354;28;20047;-73
2022/01/02 03:43:07;;;;;;;5.82;4.55;;;;;;;;;;5113211;28;20478;-73
2022/01/02 03:45:33;;;;;;;5.60;4.13;;;;;;;;;;5113461;28;20522;-73
2022/01/02 03:47:59;;;;;;;5.45;4.30;;;;;;;;;;5112961;28;20051;-73
2022/01/02 03:50:26;;;;;;;4.18;3.78;;;;;;;;;;5113024;28;20035;-73
2022/01/02 03:52:52;;;;;;;5.47;4.18;;;;;;;;;;5112833;28;20087;-73
2022/01/02 03:55:18;;;;;;;4.88;4.07;;;;;;;;;;5112935;28;20402;-73
2022/01/02 03:57:44;;;;;;;4.85;4.07;;;;;;;;;;5112725;28;20094;-73
2022/01/02 04:00:12;;;;;;;4.28;3.88;;;;;;;;;;5112675;28;20051;-73
2022/01/02 04:02:38;;;;;;;5.28;4.00;;;;;;;;;;5112729;28;20024;-73
2022/01/02 04:05:08;;;;;;;4.85;3.67;;;;;;;;;;5112646;28;20118;-73
2022/01/02 04:07:34;;;;;;;4.63;3.90;;;;;;;;;;5112649;28;20414;-73
2022/01/02 04:10:04;;;;;;;4.57;3.88;;;;;;;;;;5112747;28;20042;-73
2022/01/02 04:12:30;;;;;;;4.43;3.75;;;;;;;;;;5112556;28;20023;-73
2022/01/02 04:14:56;;;;;;;4.65;3.75;;;;;;;;;;5112538;28;20042;-73
2022/01/02 04:17:23;;;;;;;4.05;3.65;;;;;;;;;;5094487;28;20054;-73
2022/01/02 04:19:50;;;;;;;4.15;3.67;;;;;;;;;;5116204;28;20042;-73
2022/01/02 04:22:16;;;;;;;4.78;3.53;;;;;;;;;;5098658;28;20442;-73
2022/01/02 04:24:42;;;;;;;4.35;3.58;;;;;;;;;;5116121;28;20111;-73
2022/01/02 04:27:08;;;;;;;3.95;3.45;;;;;;;;;;5116742;28;20023;-73
2022/01/02 04:29:34;;;;;;;4.72;3.95;;;;;;;;;;5116030;27;20044;-73
2022/01/02 04:32:00;;;;;;;4.28;3.25;;;;;;;;;;5116705;28;20055;-73
2022/01/02 04:34:26;;;;;;;4.63;3.88;;;;;;;;;;5116539;28;20047;-73
2022/01/02 04:36:52;;;;;;;4.00;3.20;;;;;;;;;;5116631;28;20046;-73
2022/01/02 04:39:19;;;;;;;3.80;3.40;;;;;;;;;;5116482;28;20024;-73
2022/01/02 04:41:45;;;;;;;4.20;3.40;;;;;;;;;;5097889;28;20564;-73
2022/01/02 04:44:11;;;;;;;3.30;3.00;;;;;;;;;;5116204;28;20417;-73
2022/01/02 04:46:37;;;;;;;3.63;3.25;;;;;;;;;;5116378;28;20019;-73
2022/01/02 04:49:03;;;;;;;4.00;3.47;;;;;;;;;;5116228;28;20032;-73
2022/01/02 04:51:29;;;;;;;3.53;2.78;;;;;;;;;;5116366;28;20043;-73
2022/01/02 04:53:55;;;;;;;3.47;2.70;;;;;;;;;;5116143;28;20406;-73
2022/01/02 04:56:21;;;;;;;3.95;3.30;;;;;;;;;;5116302;28;20023;-73
2022/01/02 04:58:47;;;;;;;3.50;3.20;;;;;;;;;;5116172;28;20026;-73
2022/01/02 05:01:14;;;;;;;3.50;3.20;;;;;;;;;;5116196;28;20544;-73
2022/01/02 05:03:41;;;;;;;3.42;3.00;;;;;;;;;;5115746;28;20027;-73
2022/01/02 05:06:07;;;;;;;3.67;3.10;;;;;;;;;;5115643;28;20081;-73
2022/01/02 05:08:33;;;;;;;3.25;2.80;;;;;;;;;;5115928;28;20036;-73
2022/01/02 05:11:00;;;;;;;3.58;3.03;;;;;;;;;;5115671;28;20028;-73
2022/01/02 05:13:26;;;;;;;3.25;2.85;;;;;;;;;;5097542;28;20031;-73
2022/01/02 05:15:52;;;;;;;3.45;2.75;;;;;;;;;;5115519;28;20027;-72
2022/01/02 05:18:18;;;;;;;3.25;2.95;;;;;;;;;;5115615;28;20027;-73
2022/01/02 05:20:46;;;;;;;3.78;2.83;;;;;;;;;;5115481;28;20024;-73
2022/01/02 05:23:15;;;;;;;3.40;3.03;;;;;;;;;;5115439;28;20106;-73
2022/01/02 05:25:42;;;;;;;4.30;3.42;;;;;;;;;;5115242;28;20390;-73
2022/01/02 05:28:09;;;;;;;3.42;3.13;;;;;;;;;;5115504;28;20483;-73
2022/01/02 05:30:36;;;;;;;3.47;2.80;;;;;;;;;;5095804;28;20119;-73
2022/01/02 05:33:02;;;;;;;3.55;2.78;;;;;;;;;;5115516;28;20034;-73
2022/01/02 05:35:29;;;;;;;3.72;2.55;;;;;;;;;;5115000;28;20068;-73
2022/01/02 05:37:56;;;;;;;3.08;2.70;;;;;;;;;;5115458;28;20026;-72
2022/01/02 05:40:22;;;;;;;2.97;2.50;;;;;;;;;;5096883;28;20040;-73
2022/01/02 05:42:48;;;;;;;4.00;2.55;;;;;;;;;;5115552;28;20023;-73
2022/01/02 05:45:14;;;;;;;2.80;2.47;;;;;;;;;;5115043;28;20093;-73
2022/01/02 05:47:40;;;;;;;2.88;2.58;;;;;;;;;;5115195;28;20036;-73
2022/01/02 05:50:07;;;;;;;2.75;2.50;;;;;;;;;;5114683;28;20024;-73
2022/01/02 05:52:33;;;;;;;3.22;2.55;;;;;;;;;;5115310;28;20436;-73
2022/01/02 05:54:59;;;;;;;3.17;2.75;;;;;;;;;;5114706;28;20047;-73
2022/01/02 05:57:25;;;;;;;2.85;2.33;;;;;;;;;;5115077;28;20030;-73
2022/01/02 05:59:51;;;;;;;3.03;2.30;;;;;;;;;;5096296;28;20570;-73
2022/01/02 06:02:17;;;;;;;2.80;2.40;;;;;;;;;;5115249;28;20046;-73
2022/01/02 06:04:43;;;;;;;3.22;2.40;;;;;;;;;;5114582;28;20059;-73
2022/01/02 06:07:09;;;;;;;3.03;2.45;;;;;;;;;;5114474;28;20032;-73
2022/01/02 06:09:35;;;;;;;2.67;2.28;;;;;;;;;;5114598;28;20038;-73
2022/01/02 06:12:01;;;;;;;2.55;2.28;;;;;;;;;;5114337;28;20482;-73
2022/01/02 06:14:27;;;;;;;2.72;2.20;;;;;;;;;;5114362;28;20061;-73
2022/01/02 06:16:54;;;;;;;2.53;2.30;;;;;;;;;;5096002;28;20028;-73
2022/01/02 06:19:20;;;;;;;2.75;2.10;;;;;;;;;;5114270;28;20023;-73
2022/01/02 06:21:46;;;;;;;3.45;2.15;;;;;;;;;;5114198;28;20063;-73
2022/01/02 06:24:12;;;;;;;3.40;2.28;;;;;;;;;;5095952;28;20145;-73
2022/01/02 06:26:38;;;;;;;2.08;1.88;;;;;;;;;;5113942;28;20019;-73
2022/01/02 06:29:04;;;;;;;2.00;1.75;;;;;;;;;;5114159;27;20035;-73
2022/01/02 06:31:30;;;;;;;2.08;1.80;;;;;;;;;;5113880;28;20028;-73
2022/01/02 06:33:56;;;;;;;2.30;1.80;;;;;;;;;;5114390;28;20363;-73
2022/01/02 06:36:22;;;;;;;2.28;2.05;;;;;;;;;;5113851;28;20050;-73
2022/01/02 06:38:49;;;;;;;3.15;2.20;;;;;;;;;;5114348;28;20020;-73
2022/01/02 06:41:16;;;;;;;2.55;2.15;;;;;;;;;;5113444;28;20062;-73
2022/01/02 06:43:43;;;;;;;2.45;2.05;;;;;;;;;;5113859;28;20494;-73
2022/01/02 06:46:09;;;;;;;1.73;1.63;;;;;;;;;;5113663;28;20032;-73
2022/01/02 06:48:35;;;;;;;1.67;1.58;;;;;;;;;;5113778;28;20027;-73
2022/01/02 06:51:01;;;;;;;2.15;1.80;;;;;;;;;;5113583;28;20032;-73
2022/01/02 06:53:27;;;;;;;1.80;1.60;;;;;;;;;;5114251;28;20019;-73
2022/01/02 06:55:53;;;;;;;2.10;1.80;;;;;;;;;;5113470;28;20059;-73
2022/01/02 06:58:19;;;;;;;2.28;2.08;;;;;;;;;;5113915;28;20024;-73
2022/01/02 07:00:45;;;;;;;1.88;1.77;;;;;;;;;;5095154;28;20085;-73
2022/01/02 07:03:11;;;;;;;2.08;1.80;;;;;;;;;;5095496;28;20080;-73
2022/01/02 07:05:37;;;;;;;2.10;1.90;;;;;;;;;;5095433;28;20027;-73
2022/01/02 07:08:03;;;;;;;1.88;1.48;;;;;;;;;;5113216;28;20020;-73
2022/01/02 07:10:29;;;;;;;1.85;1.75;;;;;;;;;;5113620;28;20527;-73
2022/01/02 07:12:55;;;;;;;1.85;1.50;;;;;;;;;;5113238;28;20050;-73
2022/01/02 07:15:21;;;;;;;2.40;1.83;;;;;;;;;;5113556;28;20119;-73
2022/01/02 07:17:48;;;;;;;2.03;1.75;;;;;;;;;;5113488;28;20390;-73
2022/01/02 07:20:14;;;;;;;2.45;1.60;;;;;;;;;;5113175;28;20027;-73
2022/01/02 07:22:42;;;;;;;2.10;1.75;;;;;;;;;;5113104;28;20024;-73
2022/01/02 07:25:08;;;;;;;1.90;1.55;;;;;;;;;;5113347;28;20081;-73
2022/01/02 07:27:34;;;;;;;1.38;1.27;;;;;;;;;;5112637;27;20112;-73
2022/01/02 07:30:00;;;;;;;1.50;1.40;;;;;;;;;;5113181;28;20035;-73
2022/01/02 07:32:27;;;;;;;2.10;1.80;;;;;;;;;;5112801;28;20020;-73
2022/01/02 07:34:53;;;;;;;3.42;1.60;;;;;;;;;;5113093;28;20068;-73
2022/01/02 07:37:19;;;;;;;1.88;1.67;;;;;;;;;;5112901;28;20020;-73
2022/01/02 07:39:45;;;;;;;1.77;1.45;;;;;;;;;;5113115;28;20030;-73
2022/01/02 07:42:11;;;;;;;1.90;1.55;;;;;;;;;;5113146;28;20024;-72
2022/01/02 07:44:38;;;;;;;1.92;1.58;;;;;;;;;;5094584;28;20517;-73
2022/01/02 07:47:05;;;;;;;1.35;1.25;;;;;;;;;;5112681;28;20043;-73
2022/01/02 07:49:31;;;;;;;2.47;1.50;;;;;;;;;;5113022;28;20020;-73
2022/01/02 07:51:57;;;;;;;1.52;1.42;;;;;;;;;;5112600;28;20023;-73
2022/01/02 07:54:23;;;;;;;1.75;1.45;;;;;;;;;;5094322;28;20020;-73
2022/01/02 07:56:49;;;;;;;1.88;1.60;;;;;;;;;;5112443;28;20038;-73
2022/01/02 07:59:15;;;;;;;2.10;1.52;;;;;;;;;;5112815;28;20028;-73
2022/01/02 08:01:41;;;;;;;1.98;1.60;;;;;;;;;;5112766;28;20482;-73
2022/01/02 08:04:07;;;;;;;2.17;1.50;;;;;;;;;;5112846;28;20059;-73
2022/01/02 08:06:33;;;;;;;1.38;1.27;;;;;;;;;;5112732;28;20065;-73
2022/01/02 08:09:00;;;;;;;1.52;1.30;;;;;;;;;;5112561;28;20034;-73
2022/01/02 08:11:26;;;;;;;2.35;1.60;;;;;;;;;;5112341;28;20031;-73
2022/01/02 08:13:52;;;;;;;1.48;1.33;;;;;;;;;;5112487;28;20019;-73
2022/01/02 08:16:18;;;;;;;1.70;1.60;;;;;;;;;;5112712;28;20452;-73
2022/01/02 08:18:44;;;;;;;1.77;1.30;;;;;;;;;;5112390;28;20027;-73
2022/01/02 08:21:10;;;;;;;1.48;1.20;;;;;;;;;;5112973;28;20098;-73
2022/01/02 08:23:36;;;;;;;1.70;1.40;;;;;;;;;;5112042;28;20023;-73
2022/01/02 08:26:03;;;;;;;1.92;1.42;;;;;;;;;;5112692;28;20034;-73
2022/01/02 08:28:29;;;;;;;2.08;1.30;;;;;;;;;;5112085;28;20043;-73
2022/01/02 08:30:55;;;;;;;1.55;1.42;;;;;;;;;;5112581;28;20112;-73
2022/01/02 08:33:21;;;;;;;2.22;1.33;;;;;;;;;;5093960;28;20023;-73
2022/01/02 08:35:48;;;;;;;1.80;1.38;;;;;;;;;;5112721;28;20390;-73
2022/01/02 08:38:15;;;;;;;1.50;1.40;;;;;;;;;;5112216;28;20047;-73
2022/01/02 08:40:41;;;;;;;1.30;1.17;;;;;;;;;;5094233;28;20032;-72
2022/01/02 08:43:08;;;;;;;1.52;1.42;;;;;;;;;;5112185;28;20024;-73
2022/01/02 08:45:35;;;;;;;1.33;1.23;;;;;;;;;;5112665;28;20441;-73
2022/01/02 08:48:01;;;;;;;1.23;1.13;;;;;;;;;;5093681;28;20036;-73
2022/01/02 08:50:27;;;;;;;1.50;1.20;;;;;;;;;;5112228;28;20081;-73
2022/01/02 08:52:53;;;;;;;1.38;1.27;;;;;;;;;;5111868;28;20031;-73
2022/01/02 08:55:19;;;;;;;1.45;1.30;;;;;;;;;;5112578;28;20032;-73
2022/01/02 08:57:46;;;;;;;1.85;1.50;;;;;;;;;;5112056;28;20020;-73
2022/01/02 09:00:12;;;;;;;1.40;1.23;;;;;;;;;;5112489;28;20028;-73
2022/01/02 09:02:38;;;;;;;1.63;1.00;;;;;;;;;;5112122;28;20062;-73
2022/01/02 09:05:04;;;;;;;1.33;1.20;;;;;;;;;;5113564;28;20031;-73
2022/01/02 09:07:31;;;;;;;2.17;1.25;;;;;;;;;;5116242;28;20023;-73
2022/01/02 09:09:57;;;;;;;1.08;0.93;;;;;;;;;;5115469;28;20556;-73
2022/01/02 09:12:23;;;;;;;1.25;1.15;;;;;;;;;;5115461;28;20016;-73
2022/01/02 09:14:49;;;;;;;1.77;1.40;;;;;;;;;;5115499;28;20024;-73
2022/01/02 09:17:15;;;;;;;1.55;1.23;;;;;;;;;;5115816;28;20395;-73
2022/01/02 09:19:41;;;;;;;1.98;1.27;;;;;;;;;;5115395;28;20028;-73
2022/01/02 09:22:07;;;;;;;1.80;1.33;;;;;;;;;;5115709;28;20024;-73
2022/01/02 09:24:33;;;;;;;1.83;1.27;;;;;;;;;;5114987;28;20371;-73
2022/01/02 09:26:59;;;;;;;2.03;1.20;;;;;;;;;;5115939;28;20506;-73
2022/01/02 09:29:25;;;;;;;4.10;1.40;;;;;;;;;;5114878;27;20047;-73
2022/01/02 09:31:51;;;;;;;1.30;1.10;;;;;;;;;;5115752;28;20024;-73
2022/01/02 09:34:18;;;;;;;1.63;1.38;;;;;;;;;;5115281;28;20019;-73
2022/01/02 09:36:44;;;;;;;1.20;1.10;;;;;;;;;;5115117;28;20035;-73
2022/01/02 09:39:10;;;;;;;1.75;1.10;;;;;;;;;;5115127;28;20486;-73
2022/01/02 09:41:39;;;;;;;2.63;1.50;;;;;;;;;;5115643;28;20421;-73
2022/01/02 09:44:05;;;;;;;2.53;1.40;;;;;;;;;;5115200;28;20023;-73
2022/01/02 09:46:31;;;;;;;5.78;1.92;;;;;;;;;;5115550;28;20046;-73
2022/01/02 09:48:57;;;;;;;3.60;1.58;;;;;;;;;;5114743;28;20073;-73
2022/01/02 09:51:25;;;;;;;6.53;1.83;;;;;;;;;;5115149;28;20027;-73
2022/01/02 09:53:51;;;;;;;6.82;2.03;;;;;;;;;;5114687;28;20023;-73
2022/01/02 09:56:18;;;;;;;4.40;2.08;;;;;;;;;;5115149;28;20106;-73
2022/01/02 09:58:44;;;;;;;4.28;2.10;;;;;;;;;;5114895;28;20474;-73
2022/01/02 10:01:17;;;;;;;5.88;2.17;;;;;;;;;;5115343;28;20035;-73
2022/01/02 10:03:43;;;;;;;;;;;;;;;;;;5115041;28;20027;-73
2022/01/02 10:06:10;;;;;;;9.57;2.03;;;;;;;;;;5115038;28;20430;-73
2022/01/02 10:08:36;;;;;;;5.60;2.30;;;;;;;;;;5114850;28;20517;-73
2022/01/02 10:11:06;;;;;;;8.73;2.25;;;;;;;;;;5114571;28;20501;-73
2022/01/02 10:13:51;;;;;;;4.38;2.15;;;;;;;;;;5114819;28;20150;-73
2022/01/02 10:16:20;;;;;;;4.13;1.95;;;;;;;;;;5095583;28;20162;-73
2022/01/02 10:18:48;;;;;;;5.05;2.10;;;;;;;;;;5096039;28;20051;-73
2022/01/02 10:21:26;;;;;;;5.18;2.10;;;;;;;;;;5114587;28;20024;-73
2022/01/02 10:24:12;;;;;;;7.43;2.70;;;;;;;;;;5113897;28;20029;-73
2022/01/02 10:26:38;;;;;;;4.18;2.13;;;;;;;;;;5114662;28;20020;-73
2022/01/02 10:29:10;;;;;;;3.83;2.10;;;;;;;;;;5113859;28;20518;-73
2022/01/02 10:31:37;;;;;;;3.55;1.80;;;;;;;;;;5114531;28;20114;-73
2022/01/02 10:34:03;;;;;;;5.88;2.17;;;;;;;;;;5114039;28;20023;-72
2022/01/02 10:36:33;;;;;;;7.43;2.35;;;;;;;;;;5114049;28;20030;-72
2022/01/02 10:38:59;;;;;;;5.18;2.17;;;;;;;;;;5113869;28;20055;-72
2022/01/02 10:41:33;;;;;;;6.32;2.03;;;;;;;;;;5113984;28;20137;-72
2022/01/02 10:44:18;;;;;;;5.93;1.90;;;;;;;;;;5113776;28;20051;-72
2022/01/02 10:47:08;;;;;;;5.50;1.95;;;;;;;;;;5113816;28;20134;-73
2022/01/02 10:50:03;;;;;;;5.55;2.13;;;;;;;;;;5100958;28;20537;-73
2022/01/02 10:52:31;;;;;;;4.55;1.88;;;;;;;;;;5093362;28;20031;-71
2022/01/02 10:54:59;;;;;;;3.72;1.92;;;;;;;;;;5113398;28;20019;-72
2022/01/02 10:57:26;;;;;;;5.80;2.17;;;;;;;;;;5113683;28;20024;-72
2022/01/02 10:59:55;;;;;;;5.22;1.90;;;;;;;;;;5113245;28;20532;-72
2022/01/02 11:02:21;;;;;;;5.10;2.15;;;;;;;;;;5113718;28;20038;-73
2022/01/02 11:05:07;;;;;;;5.85;2.17;;;;;;;;;;5113448;28;20106;-73
2022/01/02 11:07:44;;;;;;;2.95;1.85;;;;;;;;;;5113435;28;20035;-73
2022/01/02 11:10:11;;;;;;;5.43;2.13;;;;;;;;;;5094880;28;20432;-73
2022/01/02 11:12:38;;;;;;;3.92;1.90;;;;;;;;;;5113369;28;20047;-73
2022/01/02 11:15:05;;;;;;;3.85;1.90;;;;;;;;;;5113041;28;20431;-73
2022/01/02 11:17:33;;;;;;;3.72;1.85;;;;;;;;;;5113551;28;20026;-73
2022/01/02 11:19:59;;;;;;;3.20;1.90;;;;;;;;;;5113023;28;20020;-73
2022/01/02 11:22:36;;;;;;;3.97;2.15;;;;;;;;;;5113727;28;20059;-73
2022/01/02 11:25:08;;;;;;;3.42;1.88;;;;;;;;;;5094672;28;20082;-73
2022/01/02 11:27:42;;;;;;;3.15;1.90;;;;;;;;;;5112518;27;20371;-73
2022/01/02 11:30:26;;;;;;;3.65;2.15;;;;;;;;;;5112851;28;20077;-73
2022/01/02 11:33:12;;;;;;;3.40;1.70;;;;;;;;;;5113133;28;20022;-73
2022/01/02 11:35:39;;;;;;;3.42;2.08;;;;;;;;;;5094613;28;20103;-73
2022/01/02 11:38:06;;;;;;;3.17;2.13;;;;;;;;;;5113434;28;20030;-73
2022/01/02 11:40:46;;;;;;;3.00;2.03;;;;;;;;;;5112794;28;20088;-73
2022/01/02 11:43:30;;;;;;;3.92;2.13;;;;;;;;;;5113052;28;20031;-73
2022/01/02 11:46:14;;;;;;;2.72;1.70;;;;;;;;;;5112644;28;20402;-73
2022/01/02 11:48:40;;;;;;;4.43;2.30;;;;;;;;;;5112916;28;20038;-73
2022/01/02 11:51:06;;;;;;;3.72;1.85;;;;;;;;;;5112529;28;20118;-73
2022/01/02 11:53:36;;;;;;;3.42;2.03;;;;;;;;;;5113151;28;20016;-73
2022/01/02 11:56:03;;;;;;;4.90;2.00;;;;;;;;;;5112893;28;20405;-73
2022/01/02 11:58:38;;;;;;;3.20;1.80;;;;;;;;;;5113113;28;20020;-73
2022/01/02 12:01:04;;;;;;;3.80;1.83;;;;;;;;;;5112450;28;20028;-73
2022/01/02 12:03:44;;;;;;;2.92;1.50;;;;;;;;;;5112989;28;20027;-73
2022/01/02 12:06:15;;;;;;;3.28;2.00;;;;;;;;;;5112703;28;20069;-73
2022/01/02 12:08:41;;;;;;;2.78;1.70;;;;;;;;;;5112869;28;20016;-73
2022/01/02 12:11:26;;;;;;;3.05;1.80;;;;;;;;;;5112370;28;20032;-73
2022/01/02 12:14:05;;;;;;;1.90;1.58;;;;;;;;;;5112957;28;20031;-73
2022/01/02 12:16:35;;;;;;;3.83;1.75;;;;;;;;;;5112504;28;20064;-73
2022/01/02 12:19:02;;;;;;;2.30;1.75;;;;;;;;;;5112701;28;20020;-73
2022/01/02 12:21:28;;;;;;;2.47;1.80;;;;;;;;;;5112461;28;20031;-73
2022/01/02 12:23:56;;;;;;;3.03;1.95;;;;;;;;;;5112369;28;20392;-73
2022/01/02 12:26:35;;;;;;;4.60;2.05;;;;;;;;;;5112743;28;20387;-73
2022/01/02 12:29:06;;;;;;;2.97;1.92;;;;;;;;;;5112433;27;20051;-73
2022/01/02 12:31:36;;;;;;;3.30;1.85;;;;;;;;;;5112347;28;20114;-73
2022/01/02 12:34:04;;;;;;;2.83;1.83;;;;;;;;;;5094210;28;20051;-73
2022/01/02 12:36:30;;;;;;;3.05;1.90;;;;;;;;;;5112446;28;20034;-73
2022/01/02 12:38:57;;;;;;;4.03;1.90;;;;;;;;;;5113279;28;20119;-73
2022/01/02 12:41:24;;;;;;;3.40;1.95;;;;;;;;;;5116480;28;20024;-73
2022/01/02 12:43:58;;;;;;;3.17;1.80;;;;;;;;;;5098208;28;20033;-73
2022/01/02 12:46:40;;;;;;;4.32;1.92;;;;;;;;;;5116191;28;20024;-73
2022/01/02 12:49:07;;;;;;;3.67;2.17;;;;;;;;;;5116502;28;20020;-73
2022/01/02 12:51:34;;;;;;;3.67;1.98;;;;;;;;;;5097626;28;20445;-73
2022/01/02 12:54:08;;;;;;;3.15;1.95;;;;;;;;;;5116593;28;20483;-73
2022/01/02 12:56:37;;;;;;;3.22;1.80;;;;;;;;;;5097644;28;20027;-73
2022/01/02 12:59:23;;;;;;;3.67;1.90;;;;;;;;;;5116034;28;20103;-73
2022/01/02 13:01:50;;;;;;;2.95;1.60;;;;;;;;;;5115891;28;20379;-73
2022/01/02 13:04:17;;;;;;;3.90;2.00;;;;;;;;;;5116391;28;20024;-73
2022/01/02 13:06:47;;;;;;;4.55;2.05;;;;;;;;;;5116045;28;20020;-73
2022/01/02 13:09:21;;;;;;;2.95;1.85;;;;;;;;;;5115961;28;20024;-73
2022/01/02 13:11:47;;;;;;;2.92;2.10;;;;;;;;;;5115511;28;20024;-73
2022/01/02 13:14:13;;;;;;;2.38;1.75;;;;;;;;;;5115966;28;20076;-73
2022/01/02 13:16:39;;;;;;;2.65;1.88;;;;;;;;;;5115294;28;20405;-73
2022/01/02 13:19:06;;;;;;;3.83;2.28;;;;;;;;;;5115910;28;20062;-73
2022/01/02 13:21:32;;;;;;;3.15;1.88;;;;;;;;;;5115615;28;20398;-73
2022/01/02 13:24:17;;;;;;;2.33;1.85;;;;;;;;;;5097318;28;20038;-73
2022/01/02 13:26:43;;;;;;;3.00;2.20;;;;;;;;;;5115459;28;20030;-73
2022/01/02 13:29:09;;;;;;;2.97;1.92;;;;;;;;;;5115574;28;20051;-73
2022/01/02 13:31:35;;;;;;;2.67;1.55;;;;;;;;;;5115328;28;20510;-73
2022/01/02 13:34:01;;;;;;;2.90;2.08;;;;;;;;;;5115075;28;20032;-73
2022/01/02 13:36:28;;;;;;;2.97;1.83;;;;;;;;;;5115468;28;20029;-73
2022/01/02 13:38:58;;;;;;;3.42;1.67;;;;;;;;;;5115069;28;20043;-73
2022/01/02 13:41:28;;;;;;;2.25;1.55;;;;;;;;;;5115405;28;20506;-73
2022/01/02 13:43:54;;;;;;;2.70;2.00;;;;;;;;;;5114993;28;20032;-73
2022/01/02 13:46:21;;;;;;;2.70;1.77;;;;;;;;;;5115195;28;20490;-73
2022/01/02 13:48:47;;;;;;;2.95;1.90;;;;;;;;;;5114767;28;20031;-73
2022/01/02 13:51:14;;;;;;;3.13;2.08;;;;;;;;;;5095765;28;20050;-73
2022/01/02 13:53:41;;;;;;;2.75;1.73;;;;;;;;;;5115086;28;20107;-73
2022/01/02 13:56:07;;;;;;;3.28;2.08;;;;;;;;;;5115278;28;20068;-73
2022/01/02 13:58:34;;;;;;;1.90;1.55;;;;;;;;;;5096298;28;20026;-73
2022/01/02 14:01:02;;;;;;;2.65;1.80;;;;;;;;;;5115062;28;20032;-73
2022/01/02 14:03:31;;;;;;;2.40;1.90;;;;;;;;;;5114842;28;20370;-73
2022/01/02 14:05:57;;;;;;;2.92;1.90;;;;;;;;;;5114940;28;20030;-73
2022/01/02 14:08:24;;;;;;;2.50;1.85;;;;;;;;;;5114392;28;20040;-73
2022/01/02 14:11:07;;;;;;;2.42;1.75;;;;;;;;;;5096105;28;20023;-73
2022/01/02 14:13:37;;;;;;;2.58;1.90;;;;;;;;;;5114391;28;20020;-73
2022/01/02 14:16:04;;;;;;;3.20;1.77;;;;;;;;;;5114704;28;20031;-73
2022/01/02 14:18:31;;;;;;;3.08;2.08;;;;;;;;;;5095910;28;20053;-73
2022/01/02 14:21:01;;;;;;;2.70;2.05;;;;;;;;;;5114823;28;20023;-73
2022/01/02 14:23:28;;;;;;;2.10;1.50;;;;;;;;;;5114048;28;20023;-73
2022/01/02 14:25:54;;;;;;;2.80;1.85;;;;;;;;;;5114527;28;20394;-73
2022/01/02 14:28:20;;;;;;;2.40;1.83;;;;;;;;;;5113966;27;20477;-73
2022/01/02 14:30:49;;;;;;;2.33;1.58;;;;;;;;;;5114338;28;20509;-73
2022/01/02 14:33:15;;;;;;;2.65;1.88;;;;;;;;;;5114090;28;20072;-73
2022/01/02 14:35:41;;;;;;;2.80;1.98;;;;;;;;;;5095980;28;20045;-73
2022/01/02 14:38:07;;;;;;;2.72;1.92;;;;;;;;;;5113691;28;20020;-73
2022/01/02 14:40:34;;;;;;;2.97;2.00;;;;;;;;;;5095896;28;20031;-73
2022/01/02 14:43:00;;;;;;;3.42;2.05;;;;;;;;;;5113779;28;20042;-73
2022/01/02 14:45:26;;;;;;;2.92;2.28;;;;;;;;;;5113920;28;20429;-73
2022/01/02 14:47:53;;;;;;;3.42;1.60;;;;;;;;;;5095311;28;20030;-73
2022/01/02 14:50:19;;;;;;;3.30;2.13;;;;;;;;;;5113817;28;20020;-73
2022/01/02 14:52:46;;;;;;;2.50;2.00;;;;;;;;;;5095523;28;20036;-73
2022/01/02 14:55:16;;;;;;;2.97;2.00;;;;;;;;;;5113996;28;20023;-73
2022/01/02 14:57:43;;;;;;;2.65;2.15;;;;;;;;;;5113540;28;20024;-73